sensor_id;sensor_type;location;lat;lon;timestamp;P1;durP1;ratioP1;P2;durP2;ratioP2
23561;SDS011;11959;49.418;8.728;2022-11-03T00:01:34;10.52;;;3.25;;
23561;SDS011;11959;49.418;8.728;2022-11-03T00:04:02;11.75;;;3.60;;
23561;SDS011;11959;49.418;8.728;2022-11-03T00:06:28;10.55;;;3.47;;
23561;SDS011;11959;49.418;8.728;2022-11-03T00:08:56;11.57;;;3.75;;
23561;SDS011;11959;49.418;8.728;2022-11-03T00:11:23;13.18;;;3.83;;
23561;SDS011;11959;49.418;8.728;2022-11-03T00:13:48;9.38;;;3.47;;
23561;SDS011;11959;49.418;8.728;2022-11-03T00:16:14;11.80;;;3.63;;
23561;SDS011;11959;49.418;8.728;2022-11-03T00:18:40;8.82;;;3.63;;
23561;SDS011;11959;49.418;8.728;2022-11-03T00:21:09;10.98;;;3.10;;
23561;SDS011;11959;49.418;8.728;2022-11-03T00:23:40;9.25;;;3.05;;
23561;SDS011;11959;49.418;8.728;2022-11-03T00:26:08;8.25;;;2.95;;
23561;SDS011;11959;49.418;8.728;2022-11-03T00:28:43;9.93;;;3.08;;
23561;SDS011;11959;49.418;8.728;2022-11-03T00:31:11;6.82;;;3.00;;
23561;SDS011;11959;49.418;8.728;2022-11-03T00:33:57;10.85;;;3.25;;
23561;SDS011;11959;49.418;8.728;2022-11-03T00:36:24;8.25;;;3.30;;
23561;SDS011;11959;49.418;8.728;2022-11-03T00:38:52;9.35;;;3.28;;
23561;SDS011;11959;49.418;8.728;2022-11-03T00:41:18;10.35;;;3.35;;
23561;SDS011;11959;49.418;8.728;2022-11-03T00:43:48;10.07;;;2.88;;
23561;SDS011;11959;49.418;8.728;2022-11-03T00:46:14;9.15;;;2.83;;
23561;SDS011;11959;49.418;8.728;2022-11-03T00:48:40;9.95;;;3.67;;
23561;SDS011;11959;49.418;8.728;2022-11-03T00:51:17;9.98;;;3.33;;
23561;SDS011;11959;49.418;8.728;2022-11-03T00:53:54;9.88;;;3.45;;
23561;SDS011;11959;49.418;8.728;2022-11-03T00:56:22;8.80;;;3.28;;
23561;SDS011;11959;49.418;8.728;2022-11-03T00:58:50;10.85;;;3.40;;
23561;SDS011;11959;49.418;8.728;2022-11-03T01:01:21;10.18;;;3.30;;
23561;SDS011;11959;49.418;8.728;2022-11-03T01:03:49;11.13;;;3.60;;
23561;SDS011;11959;49.418;8.728;2022-11-03T01:06:36;7.00;;;3.03;;
23561;SDS011;11959;49.418;8.728;2022-11-03T01:09:22;9.15;;;3.63;;
23561;SDS011;11959;49.418;8.728;2022-11-03T01:12:05;9.15;;;3.53;;
23561;SDS011;11959;49.418;8.728;2022-11-03T01:14:54;9.93;;;3.70;;
23561;SDS011;11959;49.418;8.728;2022-11-03T01:17:20;7.75;;;3.40;;
23561;SDS011;11959;49.418;8.728;2022-11-03T01:19:47;7.85;;;2.97;;
23561;SDS011;11959;49.418;8.728;2022-11-03T01:22:13;10.52;;;3.70;;
23561;SDS011;11959;49.418;8.728;2022-11-03T01:24:40;8.63;;;3.33;;
23561;SDS011;11959;49.418;8.728;2022-11-03T01:27:07;9.73;;;3.05;;
23561;SDS011;11959;49.418;8.728;2022-11-03T01:29:33;8.38;;;2.90;;
23561;SDS011;11959;49.418;8.728;2022-11-03T01:31:59;10.40;;;3.38;;
23561;SDS011;11959;49.418;8.728;2022-11-03T01:34:25;9.82;;;3.40;;
23561;SDS011;11959;49.418;8.728;2022-11-03T01:36:50;9.85;;;2.88;;
23561;SDS011;11959;49.418;8.728;2022-11-03T01:39:16;6.82;;;2.80;;
23561;SDS011;11959;49.418;8.728;2022-11-03T01:41:43;7.57;;;3.25;;
23561;SDS011;11959;49.418;8.728;2022-11-03T01:46:48;8.02;;;3.03;;
23561;SDS011;11959;49.418;8.728;2022-11-03T01:49:30;8.35;;;2.90;;
23561;SDS011;11959;49.418;8.728;2022-11-03T01:52:02;5.15;;;2.65;;
23561;SDS011;11959;49.418;8.728;2022-11-03T01:54:39;10.68;;;3.28;;
23561;SDS011;11959;49.418;8.728;2022-11-03T01:57:10;7.55;;;2.78;;
23561;SDS011;11959;49.418;8.728;2022-11-03T01:59:41;13.63;;;3.30;;
23561;SDS011;11959;49.418;8.728;2022-11-03T02:02:08;8.68;;;3.15;;
23561;SDS011;11959;49.418;8.728;2022-11-03T02:04:35;6.63;;;3.25;;
23561;SDS011;11959;49.418;8.728;2022-11-03T02:09:42;7.70;;;3.08;;
23561;SDS011;11959;49.418;8.728;2022-11-03T02:12:08;12.38;;;3.70;;
23561;SDS011;11959;49.418;8.728;2022-11-03T02:14:36;9.80;;;3.28;;
23561;SDS011;11959;49.418;8.728;2022-11-03T02:17:07;12.07;;;3.40;;
23561;SDS011;11959;49.418;8.728;2022-11-03T02:24:49;7.32;;;3.22;;
23561;SDS011;11959;49.418;8.728;2022-11-03T02:27:17;7.13;;;2.90;;
23561;SDS011;11959;49.418;8.728;2022-11-03T02:29:44;9.60;;;3.00;;
23561;SDS011;11959;49.418;8.728;2022-11-03T02:34:49;10.63;;;3.10;;
23561;SDS011;11959;49.418;8.728;2022-11-03T02:37:26;9.80;;;3.20;;
23561;SDS011;11959;49.418;8.728;2022-11-03T02:40:08;10.85;;;3.63;;
23561;SDS011;11959;49.418;8.728;2022-11-03T02:42:43;7.32;;;3.05;;
23561;SDS011;11959;49.418;8.728;2022-11-03T02:45:13;6.72;;;3.28;;
23561;SDS011;11959;49.418;8.728;2022-11-03T02:47:42;8.02;;;3.67;;
23561;SDS011;11959;49.418;8.728;2022-11-03T02:50:09;7.43;;;3.03;;
23561;SDS011;11959;49.418;8.728;2022-11-03T02:52:39;9.70;;;3.63;;
23561;SDS011;11959;49.418;8.728;2022-11-03T03:00:58;9.15;;;3.47;;
23561;SDS011;11959;49.418;8.728;2022-11-03T03:03:39;9.13;;;3.90;;
23561;SDS011;11959;49.418;8.728;2022-11-03T03:06:10;7.68;;;3.30;;
23561;SDS011;11959;49.418;8.728;2022-11-03T03:08:45;6.63;;;3.40;;
23561;SDS011;11959;49.418;8.728;2022-11-03T03:11:15;9.65;;;3.60;;
23561;SDS011;11959;49.418;8.728;2022-11-03T03:14:05;5.90;;;3.30;;
23561;SDS011;11959;49.418;8.728;2022-11-03T03:16:41;7.63;;;3.13;;
23561;SDS011;11959;49.418;8.728;2022-11-03T03:19:25;8.45;;;3.40;;
23561;SDS011;11959;49.418;8.728;2022-11-03T03:21:53;9.90;;;3.53;;
23561;SDS011;11959;49.418;8.728;2022-11-03T03:24:24;9.60;;;3.20;;
23561;SDS011;11959;49.418;8.728;2022-11-03T03:27:11;6.85;;;3.28;;
23561;SDS011;11959;49.418;8.728;2022-11-03T03:29:39;6.25;;;3.15;;
23561;SDS011;11959;49.418;8.728;2022-11-03T03:32:19;8.27;;;3.60;;
23561;SDS011;11959;49.418;8.728;2022-11-03T03:34:47;8.25;;;3.20;;
23561;SDS011;11959;49.418;8.728;2022-11-03T03:37:15;9.52;;;3.72;;
23561;SDS011;11959;49.418;8.728;2022-11-03T03:39:43;9.32;;;3.17;;
23561;SDS011;11959;49.418;8.728;2022-11-03T03:42:13;9.43;;;3.33;;
23561;SDS011;11959;49.418;8.728;2022-11-03T03:44:40;8.23;;;3.22;;
23561;SDS011;11959;49.418;8.728;2022-11-03T03:47:12;6.93;;;3.20;;
23561;SDS011;11959;49.418;8.728;2022-11-03T03:49:48;6.72;;;3.65;;
23561;SDS011;11959;49.418;8.728;2022-11-03T03:52:13;7.03;;;3.10;;
23561;SDS011;11959;49.418;8.728;2022-11-03T03:54:40;7.35;;;3.28;;
23561;SDS011;11959;49.418;8.728;2022-11-03T03:57:06;7.85;;;3.45;;
23561;SDS011;11959;49.418;8.728;2022-11-03T03:59:39;9.43;;;3.47;;
23561;SDS011;11959;49.418;8.728;2022-11-03T04:02:05;9.73;;;3.70;;
23561;SDS011;11959;49.418;8.728;2022-11-03T04:04:31;8.38;;;3.63;;
23561;SDS011;11959;49.418;8.728;2022-11-03T04:06:57;9.70;;;3.20;;
23561;SDS011;11959;49.418;8.728;2022-11-03T04:09:41;9.18;;;3.80;;
23561;SDS011;11959;49.418;8.728;2022-11-03T04:12:07;12.45;;;3.72;;
23561;SDS011;11959;49.418;8.728;2022-11-03T04:14:52;8.68;;;3.30;;
23561;SDS011;11959;49.418;8.728;2022-11-03T04:17:37;9.55;;;3.65;;
23561;SDS011;11959;49.418;8.728;2022-11-03T04:20:24;8.52;;;3.85;;
23561;SDS011;11959;49.418;8.728;2022-11-03T04:23:09;8.40;;;3.60;;
23561;SDS011;11959;49.418;8.728;2022-11-03T04:25:34;8.20;;;3.60;;
23561;SDS011;11959;49.418;8.728;2022-11-03T04:28:00;6.47;;;3.40;;
23561;SDS011;11959;49.418;8.728;2022-11-03T04:30:32;9.50;;;3.53;;
23561;SDS011;11959;49.418;8.728;2022-11-03T04:32:57;12.18;;;4.15;;
23561;SDS011;11959;49.418;8.728;2022-11-03T04:35:23;11.68;;;4.13;;
23561;SDS011;11959;49.418;8.728;2022-11-03T04:38:34;7.53;;;3.75;;
23561;SDS011;11959;49.418;8.728;2022-11-03T04:40:42;8.35;;;4.13;;
23561;SDS011;11959;49.418;8.728;2022-11-03T04:43:09;9.00;;;3.88;;
23561;SDS011;11959;49.418;8.728;2022-11-03T04:45:37;8.82;;;3.80;;
23561;SDS011;11959;49.418;8.728;2022-11-03T04:48:10;9.07;;;3.58;;
23561;SDS011;11959;49.418;8.728;2022-11-03T04:50:42;8.52;;;3.65;;
23561;SDS011;11959;49.418;8.728;2022-11-03T04:53:11;10.20;;;3.80;;
23561;SDS011;11959;49.418;8.728;2022-11-03T04:55:39;10.10;;;4.00;;
23561;SDS011;11959;49.418;8.728;2022-11-03T04:58:09;8.88;;;3.70;;
23561;SDS011;11959;49.418;8.728;2022-11-03T05:00:37;6.45;;;3.47;;
23561;SDS011;11959;49.418;8.728;2022-11-03T05:03:03;9.20;;;3.78;;
23561;SDS011;11959;49.418;8.728;2022-11-03T05:05:29;8.02;;;3.40;;
23561;SDS011;11959;49.418;8.728;2022-11-03T05:07:55;12.55;;;3.90;;
23561;SDS011;11959;49.418;8.728;2022-11-03T05:10:26;8.63;;;4.18;;
23561;SDS011;11959;49.418;8.728;2022-11-03T05:12:53;12.65;;;4.63;;
23561;SDS011;11959;49.418;8.728;2022-11-03T05:15:26;8.60;;;3.92;;
23561;SDS011;11959;49.418;8.728;2022-11-03T05:18:15;7.90;;;3.55;;
23561;SDS011;11959;49.418;8.728;2022-11-03T05:20:45;10.43;;;4.15;;
23561;SDS011;11959;49.418;8.728;2022-11-03T05:23:18;8.10;;;3.83;;
23561;SDS011;11959;49.418;8.728;2022-11-03T05:25:47;6.05;;;3.55;;
23561;SDS011;11959;49.418;8.728;2022-11-03T05:30:44;6.50;;;3.40;;
23561;SDS011;11959;49.418;8.728;2022-11-03T05:33:14;8.10;;;3.50;;
23561;SDS011;11959;49.418;8.728;2022-11-03T05:36:02;6.82;;;3.53;;
23561;SDS011;11959;49.418;8.728;2022-11-03T05:38:36;4.97;;;3.38;;
23561;SDS011;11959;49.418;8.728;2022-11-03T05:41:01;9.63;;;4.53;;
23561;SDS011;11959;49.418;8.728;2022-11-03T05:43:29;8.57;;;3.97;;
23561;SDS011;11959;49.418;8.728;2022-11-03T05:45:56;8.63;;;3.70;;
23561;SDS011;11959;49.418;8.728;2022-11-03T05:48:37;8.93;;;4.20;;
23561;SDS011;11959;49.418;8.728;2022-11-03T05:51:16;8.75;;;3.55;;
23561;SDS011;11959;49.418;8.728;2022-11-03T05:53:48;7.22;;;3.50;;
23561;SDS011;11959;49.418;8.728;2022-11-03T05:56:20;6.47;;;3.42;;
23561;SDS011;11959;49.418;8.728;2022-11-03T05:58:48;7.10;;;3.65;;
23561;SDS011;11959;49.418;8.728;2022-11-03T06:01:27;6.72;;;3.40;;
23561;SDS011;11959;49.418;8.728;2022-11-03T06:06:38;5.68;;;3.53;;
23561;SDS011;11959;49.418;8.728;2022-11-03T06:09:14;6.32;;;3.45;;
23561;SDS011;11959;49.418;8.728;2022-11-03T06:11:43;6.35;;;3.67;;
23561;SDS011;11959;49.418;8.728;2022-11-03T06:16:46;9.00;;;3.33;;
23561;SDS011;11959;49.418;8.728;2022-11-03T06:19:18;9.20;;;4.03;;
23561;SDS011;11959;49.418;8.728;2022-11-03T06:21:45;11.40;;;4.43;;
23561;SDS011;11959;49.418;8.728;2022-11-03T06:24:13;12.05;;;5.07;;
23561;SDS011;11959;49.418;8.728;2022-11-03T06:26:42;9.23;;;4.65;;
23561;SDS011;11959;49.418;8.728;2022-11-03T06:29:15;8.60;;;4.18;;
23561;SDS011;11959;49.418;8.728;2022-11-03T06:31:42;10.93;;;4.70;;
23561;SDS011;11959;49.418;8.728;2022-11-03T06:34:33;8.55;;;4.57;;
23561;SDS011;11959;49.418;8.728;2022-11-03T06:36:57;9.88;;;4.30;;
23561;SDS011;11959;49.418;8.728;2022-11-03T06:39:26;11.15;;;4.47;;
23561;SDS011;11959;49.418;8.728;2022-11-03T06:41:52;9.32;;;4.30;;
23561;SDS011;11959;49.418;8.728;2022-11-03T06:44:19;8.52;;;4.40;;
23561;SDS011;11959;49.418;8.728;2022-11-03T06:46:48;6.47;;;4.00;;
23561;SDS011;11959;49.418;8.728;2022-11-03T06:49:31;10.23;;;4.47;;
23561;SDS011;11959;49.418;8.728;2022-11-03T06:52:01;9.07;;;4.40;;
23561;SDS011;11959;49.418;8.728;2022-11-03T06:54:46;9.77;;;4.03;;
23561;SDS011;11959;49.418;8.728;2022-11-03T06:57:13;7.90;;;3.65;;
23561;SDS011;11959;49.418;8.728;2022-11-03T06:59:42;6.72;;;3.70;;
23561;SDS011;11959;49.418;8.728;2022-11-03T07:05:22;8.38;;;4.22;;
23561;SDS011;11959;49.418;8.728;2022-11-03T07:07:58;9.25;;;4.28;;
23561;SDS011;11959;49.418;8.728;2022-11-03T07:10:27;9.07;;;4.10;;
23561;SDS011;11959;49.418;8.728;2022-11-03T07:12:55;8.52;;;4.28;;
23561;SDS011;11959;49.418;8.728;2022-11-03T07:15:32;7.60;;;3.92;;
23561;SDS011;11959;49.418;8.728;2022-11-03T07:18:02;5.90;;;4.22;;
23561;SDS011;11959;49.418;8.728;2022-11-03T07:20:37;9.40;;;4.07;;
23561;SDS011;11959;49.418;8.728;2022-11-03T07:23:03;7.22;;;4.50;;
23561;SDS011;11959;49.418;8.728;2022-11-03T07:25:29;9.30;;;4.10;;
23561;SDS011;11959;49.418;8.728;2022-11-03T07:27:56;11.38;;;4.30;;
23561;SDS011;11959;49.418;8.728;2022-11-03T07:32:50;8.85;;;4.00;;
23561;SDS011;11959;49.418;8.728;2022-11-03T07:38:01;8.38;;;4.35;;
23561;SDS011;11959;49.418;8.728;2022-11-03T07:40:33;6.82;;;4.18;;
23561;SDS011;11959;49.418;8.728;2022-11-03T07:43:00;9.77;;;4.43;;
23561;SDS011;11959;49.418;8.728;2022-11-03T07:51:22;9.70;;;4.30;;
23561;SDS011;11959;49.418;8.728;2022-11-03T07:53:49;8.77;;;4.53;;
23561;SDS011;11959;49.418;8.728;2022-11-03T07:56:18;8.57;;;4.32;;
23561;SDS011;11959;49.418;8.728;2022-11-03T07:58:46;8.73;;;4.45;;
23561;SDS011;11959;49.418;8.728;2022-11-03T08:01:26;9.48;;;4.55;;
23561;SDS011;11959;49.418;8.728;2022-11-03T08:04:04;7.30;;;4.38;;
23561;SDS011;11959;49.418;8.728;2022-11-03T08:06:50;13.18;;;4.60;;
23561;SDS011;11959;49.418;8.728;2022-11-03T08:09:16;10.90;;;5.10;;
23561;SDS011;11959;49.418;8.728;2022-11-03T08:11:42;9.40;;;4.53;;
23561;SDS011;11959;49.418;8.728;2022-11-03T08:14:09;8.43;;;4.45;;
23561;SDS011;11959;49.418;8.728;2022-11-03T08:16:34;9.15;;;4.57;;
23561;SDS011;11959;49.418;8.728;2022-11-03T08:19:00;12.68;;;4.40;;
23561;SDS011;11959;49.418;8.728;2022-11-03T08:21:26;10.95;;;4.30;;
23561;SDS011;11959;49.418;8.728;2022-11-03T08:23:52;13.73;;;4.80;;
23561;SDS011;11959;49.418;8.728;2022-11-03T08:26:18;10.45;;;4.88;;
23561;SDS011;11959;49.418;8.728;2022-11-03T08:28:44;8.25;;;4.55;;
23561;SDS011;11959;49.418;8.728;2022-11-03T08:31:10;10.60;;;4.50;;
23561;SDS011;11959;49.418;8.728;2022-11-03T08:33:36;11.88;;;4.28;;
23561;SDS011;11959;49.418;8.728;2022-11-03T08:36:02;8.02;;;4.57;;
23561;SDS011;11959;49.418;8.728;2022-11-03T08:38:28;11.23;;;5.03;;
23561;SDS011;11959;49.418;8.728;2022-11-03T08:40:54;17.00;;;5.32;;
23561;SDS011;11959;49.418;8.728;2022-11-03T08:43:20;8.73;;;4.95;;
23561;SDS011;11959;49.418;8.728;2022-11-03T08:45:46;11.75;;;4.40;;
23561;SDS011;11959;49.418;8.728;2022-11-03T08:48:17;9.27;;;4.88;;
23561;SDS011;11959;49.418;8.728;2022-11-03T08:50:46;6.18;;;4.40;;
23561;SDS011;11959;49.418;8.728;2022-11-03T08:53:14;7.10;;;4.38;;
23561;SDS011;11959;49.418;8.728;2022-11-03T08:55:43;7.68;;;4.45;;
23561;SDS011;11959;49.418;8.728;2022-11-03T08:58:08;8.40;;;4.68;;
23561;SDS011;11959;49.418;8.728;2022-11-03T09:00:34;22.00;;;9.32;;
23561;SDS011;11959;49.418;8.728;2022-11-03T09:03:00;19.50;;;7.78;;
23561;SDS011;11959;49.418;8.728;2022-11-03T09:05:26;23.27;;;10.13;;
23561;SDS011;11959;49.418;8.728;2022-11-03T09:07:52;23.48;;;7.38;;
23561;SDS011;11959;49.418;8.728;2022-11-03T09:10:18;9.95;;;5.65;;
23561;SDS011;11959;49.418;8.728;2022-11-03T09:12:43;7.40;;;4.93;;
23561;SDS011;11959;49.418;8.728;2022-11-03T09:15:09;9.00;;;4.95;;
23561;SDS011;11959;49.418;8.728;2022-11-03T09:17:35;13.60;;;5.03;;
23561;SDS011;11959;49.418;8.728;2022-11-03T09:20:01;8.57;;;4.18;;
23561;SDS011;11959;49.418;8.728;2022-11-03T09:22:27;12.35;;;4.40;;
23561;SDS011;11959;49.418;8.728;2022-11-03T09:24:53;6.90;;;4.13;;
23561;SDS011;11959;49.418;8.728;2022-11-03T09:27:19;9.90;;;4.70;;
23561;SDS011;11959;49.418;8.728;2022-11-03T09:29:44;11.57;;;4.90;;
23561;SDS011;11959;49.418;8.728;2022-11-03T09:32:10;9.88;;;4.10;;
23561;SDS011;11959;49.418;8.728;2022-11-03T09:34:36;7.43;;;3.80;;
23561;SDS011;11959;49.418;8.728;2022-11-03T09:37:03;10.23;;;3.90;;
23561;SDS011;11959;49.418;8.728;2022-11-03T09:39:28;9.00;;;3.70;;
23561;SDS011;11959;49.418;8.728;2022-11-03T09:41:54;7.55;;;3.92;;
23561;SDS011;11959;49.418;8.728;2022-11-03T09:44:21;7.80;;;3.67;;
23561;SDS011;11959;49.418;8.728;2022-11-03T09:46:48;7.07;;;3.85;;
23561;SDS011;11959;49.418;8.728;2022-11-03T09:49:15;7.35;;;3.40;;
23561;SDS011;11959;49.418;8.728;2022-11-03T09:51:42;6.55;;;3.40;;
23561;SDS011;11959;49.418;8.728;2022-11-03T09:54:09;8.60;;;3.92;;
23561;SDS011;11959;49.418;8.728;2022-11-03T09:56:39;10.15;;;3.58;;
23561;SDS011;11959;49.418;8.728;2022-11-03T10:01:42;10.02;;;3.70;;
23561;SDS011;11959;49.418;8.728;2022-11-03T10:04:10;6.57;;;3.00;;
23561;SDS011;11959;49.418;8.728;2022-11-03T10:06:37;6.70;;;3.22;;
23561;SDS011;11959;49.418;8.728;2022-11-03T10:09:03;7.78;;;3.28;;
23561;SDS011;11959;49.418;8.728;2022-11-03T10:11:32;7.15;;;3.45;;
23561;SDS011;11959;49.418;8.728;2022-11-03T10:14:01;8.93;;;3.47;;
23561;SDS011;11959;49.418;8.728;2022-11-03T10:16:27;7.13;;;3.47;;
23561;SDS011;11959;49.418;8.728;2022-11-03T10:18:53;9.52;;;3.25;;
23561;SDS011;11959;49.418;8.728;2022-11-03T10:21:28;5.80;;;3.25;;
23561;SDS011;11959;49.418;8.728;2022-11-03T10:23:57;8.85;;;3.47;;
23561;SDS011;11959;49.418;8.728;2022-11-03T10:26:23;7.45;;;3.33;;
23561;SDS011;11959;49.418;8.728;2022-11-03T10:28:56;7.93;;;3.03;;
23561;SDS011;11959;49.418;8.728;2022-11-03T10:31:23;9.00;;;3.63;;
23561;SDS011;11959;49.418;8.728;2022-11-03T10:33:56;8.18;;;3.05;;
23561;SDS011;11959;49.418;8.728;2022-11-03T10:36:26;7.68;;;3.33;;
23561;SDS011;11959;49.418;8.728;2022-11-03T10:38:53;9.45;;;4.22;;
23561;SDS011;11959;49.418;8.728;2022-11-03T10:44:03;5.68;;;3.00;;
23561;SDS011;11959;49.418;8.728;2022-11-03T10:46:35;10.35;;;3.58;;
23561;SDS011;11959;49.418;8.728;2022-11-03T10:49:23;8.65;;;2.80;;
23561;SDS011;11959;49.418;8.728;2022-11-03T10:51:50;9.98;;;3.72;;
23561;SDS011;11959;49.418;8.728;2022-11-03T10:54:18;6.18;;;3.30;;
23561;SDS011;11959;49.418;8.728;2022-11-03T10:56:46;6.55;;;3.30;;
23561;SDS011;11959;49.418;8.728;2022-11-03T10:59:16;6.43;;;2.92;;
23561;SDS011;11959;49.418;8.728;2022-11-03T11:01:43;9.38;;;3.58;;
23561;SDS011;11959;49.418;8.728;2022-11-03T11:04:18;8.60;;;3.05;;
23561;SDS011;11959;49.418;8.728;2022-11-03T11:06:45;5.25;;;3.00;;
23561;SDS011;11959;49.418;8.728;2022-11-03T11:09:13;7.22;;;3.10;;
23561;SDS011;11959;49.418;8.728;2022-11-03T11:16:59;6.80;;;3.22;;
23561;SDS011;11959;49.418;8.728;2022-11-03T11:19:26;6.65;;;3.03;;
23561;SDS011;11959;49.418;8.728;2022-11-03T11:25:04;6.18;;;3.03;;
23561;SDS011;11959;49.418;8.728;2022-11-03T11:29:58;8.95;;;3.17;;
23561;SDS011;11959;49.418;8.728;2022-11-03T11:35:03;7.40;;;3.03;;
23561;SDS011;11959;49.418;8.728;2022-11-03T11:37:35;7.05;;;3.10;;
23561;SDS011;11959;49.418;8.728;2022-11-03T11:48:33;7.05;;;2.92;;
23561;SDS011;11959;49.418;8.728;2022-11-03T11:51:00;6.00;;;3.25;;
23561;SDS011;11959;49.418;8.728;2022-11-03T11:53:27;6.50;;;2.80;;
23561;SDS011;11959;49.418;8.728;2022-11-03T11:56:07;5.03;;;3.10;;
23561;SDS011;11959;49.418;8.728;2022-11-03T11:58:45;7.40;;;3.17;;
23561;SDS011;11959;49.418;8.728;2022-11-03T12:01:32;8.48;;;3.97;;
23561;SDS011;11959;49.418;8.728;2022-11-03T12:04:12;8.30;;;3.78;;
23561;SDS011;11959;49.418;8.728;2022-11-03T12:06:53;11.93;;;3.95;;
23561;SDS011;11959;49.418;8.728;2022-11-03T12:09:20;9.15;;;3.33;;
23561;SDS011;11959;49.418;8.728;2022-11-03T12:11:48;8.35;;;4.10;;
23561;SDS011;11959;49.418;8.728;2022-11-03T12:16:55;6.75;;;3.00;;
23561;SDS011;11959;49.418;8.728;2022-11-03T12:21:59;9.98;;;3.65;;
23561;SDS011;11959;49.418;8.728;2022-11-03T12:24:33;6.63;;;3.22;;
23561;SDS011;11959;49.418;8.728;2022-11-03T12:27:01;5.53;;;3.38;;
23561;SDS011;11959;49.418;8.728;2022-11-03T12:29:28;6.38;;;3.70;;
23561;SDS011;11959;49.418;8.728;2022-11-03T12:31:54;8.82;;;3.80;;
23561;SDS011;11959;49.418;8.728;2022-11-03T12:34:20;6.00;;;3.13;;
23561;SDS011;11959;49.418;8.728;2022-11-03T12:36:46;6.72;;;2.97;;
23561;SDS011;11959;49.418;8.728;2022-11-03T12:39:11;5.93;;;2.95;;
23561;SDS011;11959;49.418;8.728;2022-11-03T12:41:37;7.22;;;3.63;;
23561;SDS011;11959;49.418;8.728;2022-11-03T12:44:03;6.43;;;3.53;;
23561;SDS011;11959;49.418;8.728;2022-11-03T12:46:29;7.30;;;3.38;;
23561;SDS011;11959;49.418;8.728;2022-11-03T12:48:55;8.82;;;3.50;;
23561;SDS011;11959;49.418;8.728;2022-11-03T12:51:22;7.13;;;3.30;;
23561;SDS011;11959;49.418;8.728;2022-11-03T12:53:49;5.63;;;3.10;;
23561;SDS011;11959;49.418;8.728;2022-11-03T12:56:15;6.75;;;3.42;;
23561;SDS011;11959;49.418;8.728;2022-11-03T12:58:42;9.23;;;3.35;;
23561;SDS011;11959;49.418;8.728;2022-11-03T13:01:08;8.93;;;3.95;;
23561;SDS011;11959;49.418;8.728;2022-11-03T13:03:34;5.82;;;3.25;;
23561;SDS011;11959;49.418;8.728;2022-11-03T13:06:01;7.18;;;3.30;;
23561;SDS011;11959;49.418;8.728;2022-11-03T13:08:31;6.18;;;3.20;;
23561;SDS011;11959;49.418;8.728;2022-11-03T13:10:57;8.07;;;3.25;;
23561;SDS011;11959;49.418;8.728;2022-11-03T13:13:23;7.97;;;3.20;;
23561;SDS011;11959;49.418;8.728;2022-11-03T13:15:49;9.77;;;3.75;;
23561;SDS011;11959;49.418;8.728;2022-11-03T13:18:16;11.27;;;4.10;;
23561;SDS011;11959;49.418;8.728;2022-11-03T13:20:43;8.43;;;4.28;;
23561;SDS011;11959;49.418;8.728;2022-11-03T13:23:10;7.82;;;4.03;;
23561;SDS011;11959;49.418;8.728;2022-11-03T13:25:36;8.55;;;4.05;;
23561;SDS011;11959;49.418;8.728;2022-11-03T13:28:02;6.82;;;3.90;;
23561;SDS011;11959;49.418;8.728;2022-11-03T13:30:29;9.30;;;3.63;;
23561;SDS011;11959;49.418;8.728;2022-11-03T13:32:55;7.22;;;3.53;;
23561;SDS011;11959;49.418;8.728;2022-11-03T13:35:20;8.18;;;3.88;;
23561;SDS011;11959;49.418;8.728;2022-11-03T13:37:47;7.05;;;3.63;;
23561;SDS011;11959;49.418;8.728;2022-11-03T13:40:13;8.20;;;3.72;;
23561;SDS011;11959;49.418;8.728;2022-11-03T13:42:39;5.35;;;3.22;;
23561;SDS011;11959;49.418;8.728;2022-11-03T13:45:05;8.77;;;3.60;;
23561;SDS011;11959;49.418;8.728;2022-11-03T13:47:32;7.82;;;3.38;;
23561;SDS011;11959;49.418;8.728;2022-11-03T13:49:58;5.63;;;3.10;;
23561;SDS011;11959;49.418;8.728;2022-11-03T13:52:25;11.10;;;4.00;;
23561;SDS011;11959;49.418;8.728;2022-11-03T13:54:51;7.95;;;3.67;;
23561;SDS011;11959;49.418;8.728;2022-11-03T13:57:16;7.55;;;3.25;;
23561;SDS011;11959;49.418;8.728;2022-11-03T13:59:43;14.27;;;3.88;;
23561;SDS011;11959;49.418;8.728;2022-11-03T14:02:09;7.82;;;3.75;;
23561;SDS011;11959;49.418;8.728;2022-11-03T14:04:36;8.20;;;3.38;;
23561;SDS011;11959;49.418;8.728;2022-11-03T14:07:03;7.72;;;3.40;;
23561;SDS011;11959;49.418;8.728;2022-11-03T14:09:29;7.90;;;4.03;;
23561;SDS011;11959;49.418;8.728;2022-11-03T14:11:55;8.10;;;3.95;;
23561;SDS011;11959;49.418;8.728;2022-11-03T14:14:39;7.47;;;3.65;;
23561;SDS011;11959;49.418;8.728;2022-11-03T14:17:04;8.35;;;3.58;;
23561;SDS011;11959;49.418;8.728;2022-11-03T14:19:30;9.75;;;3.67;;
23561;SDS011;11959;49.418;8.728;2022-11-03T14:21:56;8.80;;;3.28;;
23561;SDS011;11959;49.418;8.728;2022-11-03T14:24:21;8.13;;;3.65;;
23561;SDS011;11959;49.418;8.728;2022-11-03T14:26:47;8.80;;;3.50;;
23561;SDS011;11959;49.418;8.728;2022-11-03T14:29:13;10.43;;;3.83;;
23561;SDS011;11959;49.418;8.728;2022-11-03T14:31:39;7.20;;;3.90;;
23561;SDS011;11959;49.418;8.728;2022-11-03T14:34:04;8.05;;;3.65;;
23561;SDS011;11959;49.418;8.728;2022-11-03T14:36:30;7.32;;;3.47;;
23561;SDS011;11959;49.418;8.728;2022-11-03T14:38:56;8.40;;;4.05;;
23561;SDS011;11959;49.418;8.728;2022-11-03T14:41:21;9.75;;;3.80;;
23561;SDS011;11959;49.418;8.728;2022-11-03T14:44:05;7.78;;;3.80;;
23561;SDS011;11959;49.418;8.728;2022-11-03T14:46:31;7.35;;;3.58;;
23561;SDS011;11959;49.418;8.728;2022-11-03T14:48:57;6.13;;;3.28;;
23561;SDS011;11959;49.418;8.728;2022-11-03T14:51:24;7.38;;;3.65;;
23561;SDS011;11959;49.418;8.728;2022-11-03T14:53:50;7.53;;;3.85;;
23561;SDS011;11959;49.418;8.728;2022-11-03T14:56:16;4.82;;;3.72;;
23561;SDS011;11959;49.418;8.728;2022-11-03T14:58:42;6.93;;;3.70;;
23561;SDS011;11959;49.418;8.728;2022-11-03T15:01:07;7.65;;;3.60;;
23561;SDS011;11959;49.418;8.728;2022-11-03T15:03:34;9.18;;;4.05;;
23561;SDS011;11959;49.418;8.728;2022-11-03T15:05:59;6.30;;;3.90;;
23561;SDS011;11959;49.418;8.728;2022-11-03T15:08:25;5.63;;;3.35;;
23561;SDS011;11959;49.418;8.728;2022-11-03T15:10:53;8.18;;;3.53;;
23561;SDS011;11959;49.418;8.728;2022-11-03T15:13:19;5.40;;;3.13;;
23561;SDS011;11959;49.418;8.728;2022-11-03T15:15:44;6.05;;;3.40;;
23561;SDS011;11959;49.418;8.728;2022-11-03T15:18:10;8.18;;;3.83;;
23561;SDS011;11959;49.418;8.728;2022-11-03T15:20:36;8.10;;;3.47;;
23561;SDS011;11959;49.418;8.728;2022-11-03T15:23:02;6.13;;;3.38;;
23561;SDS011;11959;49.418;8.728;2022-11-03T15:25:32;6.32;;;3.80;;
23561;SDS011;11959;49.418;8.728;2022-11-03T15:27:58;7.78;;;3.63;;
23561;SDS011;11959;49.418;8.728;2022-11-03T15:30:24;5.03;;;3.15;;
23561;SDS011;11959;49.418;8.728;2022-11-03T15:32:50;6.72;;;3.20;;
23561;SDS011;11959;49.418;8.728;2022-11-03T15:35:16;7.72;;;3.47;;
23561;SDS011;11959;49.418;8.728;2022-11-03T15:37:42;6.85;;;3.13;;
23561;SDS011;11959;49.418;8.728;2022-11-03T15:40:11;7.82;;;3.58;;
23561;SDS011;11959;49.418;8.728;2022-11-03T15:42:38;8.30;;;3.70;;
23561;SDS011;11959;49.418;8.728;2022-11-03T15:45:04;5.55;;;3.10;;
23561;SDS011;11959;49.418;8.728;2022-11-03T15:47:31;5.95;;;3.38;;
23561;SDS011;11959;49.418;8.728;2022-11-03T15:49:57;5.30;;;3.25;;
23561;SDS011;11959;49.418;8.728;2022-11-03T15:52:23;5.53;;;3.00;;
23561;SDS011;11959;49.418;8.728;2022-11-03T15:54:49;4.15;;;3.08;;
23561;SDS011;11959;49.418;8.728;2022-11-03T15:57:14;6.97;;;3.42;;
23561;SDS011;11959;49.418;8.728;2022-11-03T15:59:40;7.07;;;3.80;;
23561;SDS011;11959;49.418;8.728;2022-11-03T16:02:06;8.05;;;3.88;;
23561;SDS011;11959;49.418;8.728;2022-11-03T16:04:32;8.43;;;4.20;;
23561;SDS011;11959;49.418;8.728;2022-11-03T16:06:58;10.48;;;4.40;;
23561;SDS011;11959;49.418;8.728;2022-11-03T16:09:24;10.00;;;4.50;;
23561;SDS011;11959;49.418;8.728;2022-11-03T16:11:49;9.00;;;4.50;;